Time;durP1;ratioP1;P1;durP2;ratioP2;P2;SDS_P1;SDS_P2;PMS_P1;PMS_P2;Temp;Humidity;BMP_temperature;BMP_pressure;BME280_temperature;BME280_humidity;BME280_pressure;Samples;Min_cycle;Max_cycle;Signal;HPM_P1;HPM_P2
2023/08/13 00:01:56;;;;;;;8.32;5.93;;;19.90;99.90;;;;;;5044778;28;20075;-64
2023/08/13 00:04:27;;;;;;;8.20;6.15;;;19.80;99.90;;;;;;5064456;28;20049;-63
2023/08/13 00:07:00;;;;;;;7.30;5.57;;;19.80;99.90;;;;;;5050752;28;20055;-64
2023/08/13 00:09:32;;;;;;;8.18;5.35;;;19.80;99.90;;;;;;5055705;28;20595;-63
2023/08/13 00:12:04;;;;;;;6.32;5.50;;;19.80;99.90;;;;;;5072875;28;20432;-63
2023/08/13 00:14:36;;;;;;;7.88;5.28;;;19.80;99.90;;;;;;5057016;28;20040;-64
2023/08/13 00:17:08;;;;;;;8.07;5.90;;;19.80;99.90;;;;;;5069177;28;20527;-63
2023/08/13 00:19:40;;;;;;;6.07;5.28;;;19.80;99.90;;;;;;5055773;28;20090;-63
2023/08/13 00:22:12;;;;;;;6.47;5.10;;;19.80;99.90;;;;;;5051360;28;20059;-63
2023/08/13 00:24:44;;;;;;;8.02;5.97;;;19.80;99.90;;;;;;5056113;28;20037;-63
2023/08/13 00:27:16;;;;;;;6.93;6.22;;;19.80;99.90;;;;;;5056416;28;20105;-63
2023/08/13 00:29:47;;;;;;;6.93;5.35;;;19.90;99.90;;;;;;5049449;28;20044;-63
2023/08/13 00:32:19;;;;;;;5.97;5.40;;;19.80;99.90;;;;;;5069553;28;20040;-63
2023/08/13 00:34:51;;;;;;;7.88;5.70;;;19.80;99.90;;;;;;5053291;28;20044;-63
2023/08/13 00:37:23;;;;;;;8.32;6.28;;;19.80;99.90;;;;;;5053572;28;20163;-64
2023/08/13 00:39:55;;;;;;;6.82;5.78;;;19.80;99.90;;;;;;5050647;28;20526;-63
2023/08/13 00:42:27;;;;;;;7.13;5.88;;;19.70;99.90;;;;;;5054201;28;20067;-63
2023/08/13 00:44:58;;;;;;;6.45;5.15;;;19.70;99.90;;;;;;5055947;28;20117;-63
2023/08/13 00:47:26;;;;;;;7.03;4.75;;;19.60;99.90;;;;;;5051404;28;20135;-63
2023/08/13 00:49:58;;;;;;;4.97;4.40;;;19.60;99.90;;;;;;5050460;28;20044;-63
2023/08/13 00:52:30;;;;;;;10.90;5.15;;;19.50;99.90;;;;;;5045109;28;20049;-63
2023/08/13 00:55:02;;;;;;;5.47;4.35;;;19.50;99.90;;;;;;5056133;28;20049;-63
2023/08/13 00:57:34;;;;;;;6.10;4.77;;;19.50;99.90;;;;;;5061455;28;20052;-63
2023/08/13 01:00:08;;;;;;;6.97;4.90;;;19.50;99.90;;;;;;5048171;28;20378;-63
2023/08/13 01:02:40;;;;;;;6.95;5.03;;;19.50;99.90;;;;;;5052855;28;20082;-63
2023/08/13 01:05:12;;;;;;;8.85;5.00;;;19.40;99.90;;;;;;5069640;28;20167;-63
2023/08/13 01:07:59;;;;;;;6.97;4.88;;;19.40;99.90;;;;;;5053777;28;20044;-63
2023/08/13 01:10:34;;;;;;;5.35;4.85;;;19.30;99.90;;;;;;5046842;28;20128;-63
2023/08/13 01:13:11;;;;;;;13.60;5.53;;;19.20;99.90;;;;;;5045036;28;20049;-63
2023/08/13 01:15:44;;;;;;;5.68;4.97;;;19.20;99.90;;;;;;5067840;28;20047;-63
2023/08/13 01:18:18;;;;;;;8.02;5.07;;;19.20;99.90;;;;;;5070639;28;20516;-63
2023/08/13 01:20:45;;;;;;;7.82;4.78;;;19.20;99.90;;;;;;5053068;28;20044;-63
2023/08/13 01:23:17;;;;;;;9.93;4.43;;;19.20;99.90;;;;;;5068237;28;20504;-63
2023/08/13 01:25:58;;;;;;;5.10;4.60;;;19.10;99.90;;;;;;5054481;28;20130;-63
2023/08/13 01:28:35;;;;;;;7.20;4.97;;;19.10;99.90;;;;;;5058271;28;20041;-63
2023/08/13 01:31:27;;;;;;;7.20;5.10;;;19.10;99.90;;;;;;5048615;28;20416;-63
2023/08/13 01:34:02;;;;;;;5.30;4.80;;;19.10;99.90;;;;;;5065708;28;20040;-63
2023/08/13 01:36:34;;;;;;;5.53;5.00;;;19.10;99.90;;;;;;5050224;28;20049;-63
2023/08/13 01:39:06;;;;;;;5.28;4.78;;;19.20;99.90;;;;;;5053049;28;20504;-63
2023/08/13 01:41:49;;;;;;;5.60;4.78;;;19.20;99.90;;;;;;5053683;28;20044;-63
2023/08/13 01:44:21;;;;;;;6.72;5.78;;;19.20;99.90;;;;;;5049476;28;20055;-63
2023/08/13 01:46:53;;;;;;;9.88;5.88;;;19.20;99.90;;;;;;5051242;28;20560;-63
2023/08/13 01:49:20;;;;;;;5.90;5.03;;;19.20;99.90;;;;;;5052619;28;20041;-63
2023/08/13 01:51:53;;;;;;;7.47;5.45;;;19.20;99.90;;;;;;5057007;28;20037;-63
2023/08/13 01:54:25;;;;;;;6.20;5.50;;;19.20;99.90;;;;;;5052706;28;20044;-63
2023/08/13 01:56:57;;;;;;;6.38;5.78;;;19.10;99.90;;;;;;5052879;28;20041;-63
2023/08/13 01:59:28;;;;;;;5.90;5.30;;;19.10;99.90;;;;;;5052500;28;20040;-63
2023/08/13 02:02:01;;;;;;;5.40;4.90;;;19.10;99.90;;;;;;5048732;28;20087;-63
2023/08/13 02:04:29;;;;;;;6.75;5.88;;;19.10;99.90;;;;;;5056285;28;20040;-63
2023/08/13 02:07:00;;;;;;;6.10;5.50;;;19.10;99.90;;;;;;5052159;28;20037;-63
2023/08/13 02:09:33;;;;;;;6.28;5.68;;;19.10;99.90;;;;;;5050245;28;20064;-63
2023/08/13 02:12:00;;;;;;;6.72;5.30;;;19.20;99.90;;;;;;5050361;28;20043;-63
2023/08/13 02:14:32;;;;;;;8.27;5.18;;;19.10;99.90;;;;;;5050320;28;20068;-63
2023/08/13 02:17:04;;;;;;;5.47;4.97;;;19.10;99.90;;;;;;5053842;28;20119;-63
2023/08/13 02:19:35;;;;;;;5.45;4.95;;;19.00;99.90;;;;;;5047118;28;20046;-63
2023/08/13 02:22:08;;;;;;;4.97;4.50;;;19.00;99.90;;;;;;5062120;28;20052;-63
2023/08/13 02:24:39;;;;;;;7.70;5.18;;;18.90;99.90;;;;;;5047372;28;20045;-63
2023/08/13 02:27:11;;;;;;;6.80;5.20;;;18.90;99.90;;;;;;5051131;28;20040;-63
2023/08/13 02:29:43;;;;;;;5.82;5.25;;;18.80;99.90;;;;;;5052547;28;20036;-63
2023/08/13 02:32:15;;;;;;;7.60;4.35;;;18.80;99.90;;;;;;5069146;28;20536;-63
2023/08/13 02:34:47;;;;;;;6.20;5.40;;;18.70;99.90;;;;;;5056149;28;20067;-63
2023/08/13 02:37:14;;;;;;;5.32;4.82;;;18.70;99.90;;;;;;5060011;28;20135;-63
2023/08/13 02:39:46;;;;;;;4.38;3.97;;;18.60;99.90;;;;;;5053733;28;20045;-63
2023/08/13 02:42:17;;;;;;;6.95;5.45;;;18.70;99.90;;;;;;5049763;28;20117;-63
2023/08/13 02:44:49;;;;;;;5.97;5.03;;;18.60;99.90;;;;;;5052964;28;20052;-63
2023/08/13 02:47:21;;;;;;;7.65;6.82;;;18.60;99.90;;;;;;5070549;28;20046;-63
2023/08/13 02:49:53;;;;;;;7.18;6.45;;;18.60;99.90;;;;;;5051334;28;20131;-63
2023/08/13 02:52:25;;;;;;;9.07;7.57;;;18.60;99.90;;;;;;5065861;28;20051;-63
2023/08/13 02:54:56;;;;;;;8.57;7.20;;;18.50;99.90;;;;;;5047976;28;20040;-63
2023/08/13 02:57:28;;;;;;;6.97;6.38;;;18.50;99.90;;;;;;5048021;28;20125;-63
2023/08/13 03:00:00;;;;;;;7.32;6.35;;;18.50;99.90;;;;;;5047370;28;20069;-63
2023/08/13 03:02:32;;;;;;;9.80;5.60;;;18.40;99.90;;;;;;5048758;28;20064;-63
2023/08/13 03:05:04;;;;;;;6.38;5.60;;;18.30;99.90;;;;;;5053072;28;20504;-63
2023/08/13 03:07:36;;;;;;;6.20;5.60;;;18.30;99.90;;;;;;5062401;28;20047;-63
2023/08/13 03:10:09;;;;;;;6.20;5.47;;;18.30;99.90;;;;;;5050531;28;20516;-63
2023/08/13 03:12:41;;;;;;;5.50;4.50;;;18.30;99.90;;;;;;5056735;28;20076;-63
2023/08/13 03:15:13;;;;;;;6.80;5.68;;;18.30;99.90;;;;;;5049030;28;20140;-63
2023/08/13 03:17:45;;;;;;;8.77;4.63;;;18.30;99.90;;;;;;5051697;28;20052;-63
2023/08/13 03:20:17;;;;;;;6.28;4.93;;;18.20;99.90;;;;;;5048586;28;20052;-63
2023/08/13 03:22:49;;;;;;;6.18;4.53;;;18.20;99.90;;;;;;5068238;28;20524;-63
2023/08/13 03:25:21;;;;;;;4.93;4.20;;;18.20;99.90;;;;;;5053745;28;20079;-64
2023/08/13 03:27:53;;;;;;;6.13;4.55;;;18.10;99.90;;;;;;5063537;28;20045;-63
2023/08/13 03:30:27;;;;;;;5.10;4.60;;;18.10;99.90;;;;;;5046290;28;20405;-63
2023/08/13 03:32:59;;;;;;;7.18;4.75;;;18.10;99.90;;;;;;5064384;28;20535;-63
2023/08/13 03:35:35;;;;;;;5.88;4.78;;;18.10;99.90;;;;;;5048991;28;20040;-63
2023/08/13 03:38:07;;;;;;;7.60;4.40;;;18.10;99.90;;;;;;5066684;28;20041;-63
2023/08/13 03:40:39;;;;;;;5.05;4.55;;;18.10;99.90;;;;;;5059694;28;20582;-63
2023/08/13 03:43:11;;;;;;;4.95;4.28;;;18.10;99.90;;;;;;5035400;28;20045;-62
2023/08/13 03:45:43;;;;;;;7.13;4.45;;;18.20;99.90;;;;;;5059588;28;20115;-63
2023/08/13 03:48:10;;;;;;;5.57;4.32;;;18.10;99.90;;;;;;5073535;28;20127;-63
2023/08/13 03:50:43;;;;;;;4.55;4.07;;;18.20;99.90;;;;;;5057860;28;20044;-63
2023/08/13 03:53:14;;;;;;;;;;;18.20;99.90;;;;;;5057650;28;20048;-63
2023/08/13 03:55:46;;;;;;;9.07;4.63;;;18.20;99.90;;;;;;5063094;28;19932;-63
2023/08/13 03:58:18;;;;;;;6.75;4.35;;;18.10;99.90;;;;;;5051534;28;20407;-63
2023/08/13 04:00:50;;;;;;;5.97;4.90;;;18.10;99.90;;;;;;5052114;28;20049;-63
2023/08/13 04:03:22;;;;;;;7.10;6.40;;;18.00;99.90;;;;;;5074045;28;20039;-63
2023/08/13 04:05:53;;;;;;;11.85;6.95;;;18.00;99.90;;;;;;5055324;28;20419;-63
2023/08/13 04:08:26;;;;;;;6.90;6.20;;;17.90;99.90;;;;;;5057289;28;20508;-63
2023/08/13 04:10:58;;;;;;;7.50;6.72;;;17.80;99.90;;;;;;5056555;28;20048;-63
2023/08/13 04:13:24;;;;;;;8.50;6.75;;;17.80;99.90;;;;;;5058667;28;20033;-63
2023/08/13 04:15:57;;;;;;;14.93;7.38;;;17.80;99.90;;;;;;5059137;28;20036;-63
2023/08/13 04:18:29;;;;;;;11.90;6.50;;;17.80;99.90;;;;;;5053772;28;20040;-63
2023/08/13 04:21:01;;;;;;;10.48;6.63;;;17.70;99.90;;;;;;5039749;28;20520;-63
2023/08/13 04:23:33;;;;;;;10.48;6.72;;;17.70;99.90;;;;;;5070409;28;20049;-63
2023/08/13 04:26:05;;;;;;;10.63;6.75;;;17.60;99.90;;;;;;5056446;28;20068;-63
2023/08/13 04:28:37;;;;;;;10.85;6.63;;;17.70;99.90;;;;;;5053013;28;20413;-63
2023/08/13 04:31:08;;;;;;;7.40;6.70;;;17.70;99.90;;;;;;5024437;28;20054;-63
2023/08/13 04:33:40;;;;;;;7.90;7.15;;;17.70;99.90;;;;;;5055099;28;20048;-63
2023/08/13 04:36:08;;;;;;;9.25;7.45;;;17.80;99.90;;;;;;5067371;28;20052;-63
2023/08/13 04:38:39;;;;;;;7.00;6.40;;;17.80;99.90;;;;;;5055239;28;20451;-63
2023/08/13 04:41:11;;;;;;;11.73;6.78;;;17.80;99.90;;;;;;5056271;28;20036;-63
2023/08/13 04:43:47;;;;;;;21.70;8.35;;;17.80;99.90;;;;;;5053416;28;21275;-63
2023/08/13 04:46:18;;;;;;;11.38;7.95;;;17.80;99.90;;;;;;5053235;28;20575;-63
2023/08/13 04:48:56;;;;;;;8.52;7.72;;;17.80;99.90;;;;;;5064228;28;20417;-63
2023/08/13 04:51:30;;;;;;;9.27;8.32;;;17.80;99.90;;;;;;5051160;28;20049;-63
2023/08/13 04:54:02;;;;;;;13.68;8.73;;;17.80;99.90;;;;;;5049023;28;20060;-62
2023/08/13 04:56:34;;;;;;;9.07;8.02;;;17.90;99.90;;;;;;5040399;28;20492;-63
2023/08/13 04:59:06;;;;;;;8.67;7.87;;;18.00;99.90;;;;;;5048010;28;20045;-63
2023/08/13 05:01:39;;;;;;;7.97;7.28;;;18.00;99.90;;;;;;5056033;28;20045;-63
2023/08/13 05:04:12;;;;;;;8.60;7.80;;;18.00;99.90;;;;;;5054553;28;20079;-63
2023/08/13 05:06:44;;;;;;;8.27;7.57;;;18.00;99.90;;;;;;5040772;28;20044;-63
2023/08/13 05:09:16;;;;;;;9.25;7.50;;;18.10;99.90;;;;;;5069555;28;20106;-63
2023/08/13 05:11:48;;;;;;;8.67;7.87;;;18.10;99.90;;;;;;5054529;28;20045;-63
2023/08/13 05:14:21;;;;;;;6.43;5.82;;;18.20;99.90;;;;;;5065450;28;20036;-63
2023/08/13 05:16:54;;;;;;;5.93;5.38;;;18.20;99.90;;;;;;5039815;28;20063;-63
2023/08/13 05:19:28;;;;;;;6.93;6.32;;;18.30;99.90;;;;;;5056083;28;20040;-63
2023/08/13 05:22:00;;;;;;;7.03;6.40;;;18.30;99.90;;;;;;5039139;28;20120;-63
2023/08/13 05:24:32;;;;;;;7.18;5.78;;;18.30;99.90;;;;;;5055252;28;20045;-63
2023/08/13 05:27:04;;;;;;;5.63;5.10;;;18.40;99.90;;;;;;5050962;28;20072;-63
2023/08/13 05:29:36;;;;;;;5.80;5.30;;;18.40;99.90;;;;;;5048837;28;20059;-63
2023/08/13 05:32:04;;;;;;;12.90;7.72;;;18.50;99.90;;;;;;5053489;28;20029;-63
2023/08/13 05:34:36;;;;;;;;;;;18.50;99.90;;;;;;5061281;28;20068;-63
2023/08/13 05:37:08;;;;;;;9.00;7.00;;;18.50;99.90;;;;;;5072165;28;19920;-63
2023/08/13 05:39:35;;;;;;;8.32;5.72;;;18.40;99.90;;;;;;5047397;28;20033;-63
2023/08/13 05:42:07;;;;;;;6.05;5.25;;;18.40;99.90;;;;;;5053620;28;20424;-63
2023/08/13 05:44:39;;;;;;;7.55;6.75;;;18.40;99.90;;;;;;5054186;28;20496;-63
2023/08/13 05:47:12;;;;;;;7.43;6.55;;;18.40;99.90;;;;;;5068337;28;20067;-63
2023/08/13 05:49:44;;;;;;;6.60;6.10;;;18.30;99.90;;;;;;5061704;28;20048;-62
2023/08/13 05:52:17;;;;;;;6.40;5.80;;;18.30;99.90;;;;;;5055102;28;20452;-63
2023/08/13 05:54:49;;;;;;;6.38;5.85;;;18.30;99.90;;;;;;5070968;28;20500;-62
2023/08/13 05:57:21;;;;;;;6.80;6.20;;;18.40;99.90;;;;;;5070458;28;20404;-63
2023/08/13 05:59:52;;;;;;;8.77;7.15;;;18.50;99.90;;;;;;5071370;28;20037;-63
2023/08/13 06:02:20;;;;;;;8.73;7.10;;;18.50;99.90;;;;;;5048743;28;20043;-63
2023/08/13 06:04:51;;;;;;;6.70;6.10;;;18.50;99.90;;;;;;5064481;28;20052;-63
2023/08/13 06:07:23;;;;;;;7.97;7.18;;;18.50;99.90;;;;;;5065697;28;20047;-63
2023/08/13 06:09:55;;;;;;;7.15;6.43;;;18.60;99.90;;;;;;5055125;28;20146;-63
2023/08/13 06:12:27;;;;;;;7.70;6.88;;;18.70;99.90;;;;;;5072042;28;20405;-62
2023/08/13 06:14:59;;;;;;;7.50;6.80;;;18.70;99.90;;;;;;5070566;28;20044;-63
2023/08/13 06:17:31;;;;;;;12.23;7.45;;;18.70;99.90;;;;;;5071403;28;20037;-63
2023/08/13 06:20:03;;;;;;;6.78;6.18;;;18.80;99.90;;;;;;5054491;28;20512;-62
2023/08/13 06:22:36;;;;;;;7.55;6.95;;;18.90;99.90;;;;;;5070250;28;20036;-63
2023/08/13 06:25:08;;;;;;;10.07;9.07;;;19.00;99.90;;;;;;5063239;28;20048;-62
2023/08/13 06:27:34;;;;;;;10.52;9.35;;;19.10;99.90;;;;;;5066381;28;20636;-63
2023/08/13 06:30:07;;;;;;;11.80;10.57;;;19.20;99.90;;;;;;5066443;28;20072;-63
2023/08/13 06:32:39;;;;;;;10.32;9.40;;;19.20;99.90;;;;;;5054691;28;20400;-63
2023/08/13 06:35:12;;;;;;;13.52;9.05;;;19.30;99.90;;;;;;5063837;28;20036;-63
2023/08/13 06:37:45;;;;;;;10.35;9.45;;;19.40;99.90;;;;;;5049964;28;20032;-63
2023/08/13 06:40:17;;;;;;;9.88;8.88;;;19.50;99.90;;;;;;5052275;28;20134;-63
2023/08/13 06:42:49;;;;;;;9.02;8.18;;;19.60;99.90;;;;;;5051105;28;20047;-63
2023/08/13 06:45:26;;;;;;;8.73;7.82;;;19.60;99.90;;;;;;5071202;28;20040;-63
2023/08/13 06:47:57;;;;;;;9.00;8.20;;;19.70;99.90;;;;;;5051116;28;20055;-63
2023/08/13 06:50:31;;;;;;;8.55;7.75;;;19.70;99.90;;;;;;5061889;28;20446;-63
2023/08/13 06:53:03;;;;;;;;;;;19.70;99.90;;;;;;5047017;28;20416;-62
2023/08/13 06:55:34;;;;;;;9.10;8.23;;;19.80;99.90;;;;;;5067580;28;19924;-63
2023/08/13 06:58:06;;;;;;;9.85;8.93;;;19.90;99.90;;;;;;5070932;28;20412;-63
2023/08/13 07:00:39;;;;;;;10.60;9.20;;;19.90;99.90;;;;;;5049532;28;20531;-63
2023/08/13 07:03:11;;;;;;;;;;;19.90;99.90;;;;;;5069913;28;20033;-63
2023/08/13 07:05:43;;;;;;;10.13;9.13;;;20.00;99.90;;;;;;5069059;28;19920;-63
2023/08/13 07:08:15;;;;;;;9.60;8.60;;;20.10;99.90;;;;;;5047946;28;20037;-63
2023/08/13 07:10:47;;;;;;;10.50;9.40;;;20.20;99.90;;;;;;5053982;28;20518;-63
2023/08/13 07:13:18;;;;;;;11.60;10.38;;;20.30;99.90;;;;;;5052144;28;20045;-63
2023/08/13 07:15:50;;;;;;;13.63;10.93;;;20.40;99.90;;;;;;5064821;28;20861;-63
2023/08/13 07:18:23;;;;;;;11.40;10.38;;;20.50;99.90;;;;;;5056197;28;20040;-63
2023/08/13 07:20:54;;;;;;;12.90;11.68;;;20.70;99.90;;;;;;5054987;28;20054;-63
2023/08/13 07:23:28;;;;;;;15.63;13.15;;;20.90;99.90;;;;;;5075135;28;20040;-63
2023/08/13 07:26:00;;;;;;;14.18;12.77;;;21.00;99.90;;;;;;5070462;28;20053;-63
2023/08/13 07:28:26;;;;;;;12.93;11.73;;;21.10;99.90;;;;;;5074072;28;20522;-63
2023/08/13 07:30:58;;;;;;;12.70;11.45;;;21.20;99.90;;;;;;5057905;28;20054;-63
2023/08/13 07:33:31;;;;;;;13.90;11.68;;;21.30;99.90;;;;;;5074201;28;20059;-62
2023/08/13 07:36:03;;;;;;;15.73;11.85;;;21.40;99.90;;;;;;5068009;28;20116;-63
2023/08/13 07:38:35;;;;;;;14.23;12.82;;;21.40;99.90;;;;;;5065480;28;20039;-62
2023/08/13 07:41:07;;;;;;;13.35;12.00;;;21.40;99.90;;;;;;5072143;28;20043;-62
2023/08/13 07:43:39;;;;;;;15.32;13.73;;;21.40;99.90;;;;;;5069778;28;20032;-62
2023/08/13 07:46:11;;;;;;;12.50;11.30;;;21.40;99.90;;;;;;5054457;28;20040;-63
2023/08/13 07:48:43;;;;;;;12.63;11.02;;;21.50;99.90;;;;;;5073189;28;20120;-62
2023/08/13 07:51:10;;;;;;;13.32;12.10;;;21.60;99.90;;;;;;5053914;28;20128;-62
2023/08/13 07:53:42;;;;;;;20.92;18.85;;;21.60;99.90;;;;;;5071599;28;20419;-62
2023/08/13 07:56:14;;;;;;;16.98;14.63;;;21.70;99.90;;;;;;5072700;28;20147;-62
2023/08/13 07:58:45;;;;;;;13.63;12.23;;;21.80;99.90;;;;;;5050636;28;20041;-63
2023/08/13 08:01:13;;;;;;;20.17;17.48;;;21.80;99.90;;;;;;5065728;28;20120;-62
2023/08/13 08:03:45;;;;;;;11.85;10.55;;;21.90;99.90;;;;;;5069197;28;20385;-62
2023/08/13 08:06:17;;;;;;;12.40;9.98;;;22.00;99.90;;;;;;5055925;28;20044;-62
2023/08/13 08:08:48;;;;;;;11.65;10.35;;;22.10;99.90;;;;;;5071258;28;20052;-64
2023/08/13 08:11:20;;;;;;;12.68;10.38;;;22.20;99.90;;;;;;5069858;28;20127;-62
2023/08/13 08:13:53;;;;;;;13.48;10.80;;;22.30;99.90;;;;;;5051162;28;20047;-62
2023/08/13 08:16:24;;;;;;;11.50;10.30;;;22.40;99.90;;;;;;5064712;28;20036;-63
2023/08/13 08:18:56;;;;;;;9.50;8.60;;;22.50;99.90;;;;;;5072286;28;20037;-63
2023/08/13 08:21:28;;;;;;;11.45;8.35;;;22.60;99.90;;;;;;5074950;28;20047;-63
2023/08/13 08:24:03;;;;;;;9.77;8.77;;;22.70;99.90;;;;;;5070927;28;20504;-65
2023/08/13 08:26:35;;;;;;;11.73;8.60;;;22.80;99.90;;;;;;5069518;28;20045;-62
2023/08/13 08:29:07;;;;;;;10.95;9.95;;;22.90;99.90;;;;;;5071722;28;20033;-63
2023/08/13 08:31:39;;;;;;;8.70;7.90;;;23.00;99.90;;;;;;5072771;28;20051;-62
2023/08/13 08:34:10;;;;;;;9.85;7.95;;;23.10;99.90;;;;;;5049587;28;20470;-62
2023/08/13 08:36:42;;;;;;;9.00;8.00;;;23.30;99.90;;;;;;5070955;28;20040;-65
2023/08/13 08:39:14;;;;;;;11.25;9.98;;;23.40;99.90;;;;;;5052446;28;20047;-62
2023/08/13 08:41:46;;;;;;;9.98;8.00;;;23.50;99.90;;;;;;5053371;28;20041;-62
2023/08/13 08:44:22;;;;;;;20.02;16.02;;;23.60;99.90;;;;;;5068272;28;20573;-62
2023/08/13 08:46:54;;;;;;;12.73;11.35;;;23.70;99.90;;;;;;5070942;28;20504;-62
2023/08/13 08:49:27;;;;;;;8.68;7.78;;;23.70;99.90;;;;;;5050170;28;20051;-63
2023/08/13 08:51:59;;;;;;;16.00;13.82;;;23.80;99.90;;;;;;5053268;28;20084;-62
2023/08/13 08:54:32;;;;;;;10.73;9.70;;;23.80;99.90;;;;;;5053879;28;20036;-62
2023/08/13 08:57:05;;;;;;;12.40;10.25;;;23.90;99.90;;;;;;5067579;28;20041;-62
2023/08/13 08:59:37;;;;;;;8.70;7.80;;;24.00;99.90;;;;;;5066491;28;20044;-62
2023/08/13 09:02:12;;;;;;;8.55;6.88;;;24.00;99.90;;;;;;5069152;28;20135;-62
2023/08/13 09:04:44;;;;;;;8.68;7.00;;;24.10;99.90;;;;;;5066276;28;20504;-66
2023/08/13 09:07:16;;;;;;;7.20;6.50;;;24.30;99.90;;;;;;5068091;28;20064;-63
2023/08/13 09:09:51;;;;;;;10.40;7.18;;;24.40;99.90;;;;;;5048314;28;20677;-62
2023/08/13 09:12:23;;;;;;;8.88;7.85;;;24.50;99.90;;;;;;5067848;28;20527;-62
2023/08/13 09:14:54;;;;;;;12.98;9.30;;;24.60;99.90;;;;;;5071988;28;20174;-62
2023/08/13 09:17:29;;;;;;;10.55;7.18;;;24.70;99.90;;;;;;5068245;28;20035;-62
2023/08/13 09:20:09;;;;;;;8.73;7.90;;;24.80;99.90;;;;;;5054927;28;20063;-62
2023/08/13 09:22:44;;;;;;;8.32;7.18;;;24.90;99.90;;;;;;5071037;28;20047;-62
2023/08/13 09:25:19;;;;;;;10.25;6.80;;;24.90;99.90;;;;;;5050544;28;20512;-63
2023/08/13 09:27:51;;;;;;;10.40;7.00;;;25.00;99.90;;;;;;5068650;28;20098;-62
2023/08/13 09:30:30;;;;;;;10.90;7.32;;;25.00;99.90;;;;;;5063836;28;20128;-64
2023/08/13 09:33:03;;;;;;;9.60;7.95;;;25.10;99.90;;;;;;5032957;28;20033;-63
2023/08/13 09:35:35;;;;;;;10.63;7.95;;;25.20;99.90;;;;;;5049106;28;20051;-63
2023/08/13 09:38:07;;;;;;;9.68;8.00;;;25.20;99.90;;;;;;5068964;28;20504;-63
2023/08/13 09:40:39;;;;;;;7.50;6.80;;;25.20;99.90;;;;;;5065157;28;20440;-63
2023/08/13 09:43:15;;;;;;;8.10;7.20;;;25.20;99.90;;;;;;5067100;28;20688;-62
2023/08/13 09:45:49;;;;;;;8.70;6.82;;;25.20;99.90;;;;;;5067813;28;20037;-62
2023/08/13 09:48:18;;;;;;;8.90;7.18;;;25.30;99.90;;;;;;5052859;28;20050;-62
2023/08/13 09:50:51;;;;;;;7.38;5.90;;;25.40;99.90;;;;;;5068783;28;20041;-62
2023/08/13 09:53:20;;;;;;;7.05;6.25;;;25.50;99.90;;;;;;5067719;28;20131;-62
2023/08/13 09:55:55;;;;;;;9.65;7.43;;;25.60;99.90;;;;;;5052460;28;20044;-62
2023/08/13 09:58:28;;;;;;;7.93;5.63;;;25.70;99.90;;;;;;5050521;28;20067;-62
2023/08/13 10:01:01;;;;;;;9.10;5.60;;;25.80;99.90;;;;;;5065149;28;20048;-62
2023/08/13 10:03:34;;;;;;;6.45;5.15;;;25.90;99.90;;;;;;5068569;28;20052;-62
2023/08/13 10:06:01;;;;;;;6.00;5.38;;;26.00;99.90;;;;;;5065506;28;20036;-62
2023/08/13 10:08:33;;;;;;;6.63;5.65;;;26.20;99.90;;;;;;5067952;28;20054;-62
2023/08/13 10:11:05;;;;;;;7.23;5.03;;;26.30;99.90;;;;;;5066511;28;20052;-62
2023/08/13 10:13:38;;;;;;;6.82;5.55;;;26.40;99.90;;;;;;5062419;28;20714;-62
2023/08/13 10:16:11;;;;;;;6.30;5.68;;;26.50;99.90;;;;;;5064253;28;20048;-62
2023/08/13 10:18:46;;;;;;;6.40;5.50;;;26.50;99.90;;;;;;5066875;28;20506;-62
2023/08/13 10:21:35;;;;;;;6.50;5.55;;;26.60;99.90;;;;;;5065812;28;20456;-62
2023/08/13 10:24:13;;;;;;;6.55;5.30;;;26.70;99.90;;;;;;5068285;28;20520;-62
2023/08/13 10:26:45;;;;;;;6.47;5.55;;;26.80;99.90;;;;;;5067380;28;20045;-62
2023/08/13 10:29:19;;;;;;;5.72;5.13;;;26.80;99.90;;;;;;5069745;28;20040;-62
2023/08/13 10:32:01;;;;;;;8.27;6.00;;;26.80;99.90;;;;;;5063089;28;20072;-62
2023/08/13 10:34:50;;;;;;;6.03;5.03;;;26.90;99.90;;;;;;5073969;28;20045;-62
2023/08/13 10:37:24;;;;;;;5.55;5.05;;;27.00;99.90;;;;;;5065791;28;20040;-62
2023/08/13 10:39:56;;;;;;;6.53;5.25;;;27.00;99.90;;;;;;5052720;28;20758;-62
2023/08/13 10:42:36;;;;;;;5.45;4.95;;;26.90;99.90;;;;;;5067776;28;20044;-62
2023/08/13 10:45:13;;;;;;;6.18;5.32;;;26.80;99.90;;;;;;5067288;28;20042;-62
2023/08/13 10:47:58;;;;;;;7.13;5.82;;;26.70;99.90;;;;;;5066488;28;20086;-62
2023/08/13 10:50:35;;;;;;;5.35;4.85;;;26.80;99.90;;;;;;5070081;28;20036;-62
2023/08/13 10:53:11;;;;;;;7.40;4.85;;;26.90;99.90;;;;;;5065818;28;20042;-63
2023/08/13 10:55:52;;;;;;;5.82;5.22;;;27.20;99.90;;;;;;5066306;28;20404;-63
2023/08/13 10:58:43;;;;;;;5.65;5.03;;;27.50;99.90;;;;;;5064259;28;20024;-62
2023/08/13 11:01:19;;;;;;;5.53;5.03;;;27.50;99.90;;;;;;5069153;28;20044;-62
2023/08/13 11:03:53;;;;;;;5.65;4.80;;;27.60;99.90;;;;;;5051895;28;20090;-63
2023/08/13 11:06:28;;;;;;;5.18;4.53;;;27.70;99.90;;;;;;5063203;28;20054;-64
2023/08/13 11:09:00;;;;;;;7.38;4.82;;;27.60;99.90;;;;;;5047897;28;20102;-64
2023/08/13 11:11:32;;;;;;;6.18;5.07;;;27.50;99.90;;;;;;5068348;28;20607;-64
2023/08/13 11:14:04;;;;;;;5.50;4.65;;;27.60;99.90;;;;;;5062175;28;20036;-63
2023/08/13 11:16:36;;;;;;;5.90;5.28;;;27.60;99.90;;;;;;5068563;28;20051;-63
2023/08/13 11:19:08;;;;;;;6.15;5.35;;;27.60;99.90;;;;;;5066686;28;20064;-62
2023/08/13 11:21:40;;;;;;;6.47;4.68;;;27.70;99.90;;;;;;5069173;28;20504;-63
2023/08/13 11:24:12;;;;;;;7.75;4.95;;;27.80;99.90;;;;;;5071313;28;20059;-62
2023/08/13 11:26:39;;;;;;;5.85;4.78;;;27.90;99.90;;;;;;5068087;28;20119;-63
2023/08/13 11:29:11;;;;;;;6.43;4.83;;;28.00;99.90;;;;;;5068358;28;20512;-62
2023/08/13 11:31:44;;;;;;;5.30;4.82;;;28.10;99.90;;;;;;5068089;28;20662;-62
2023/08/13 11:34:17;;;;;;;6.85;4.75;;;28.00;99.90;;;;;;5071329;28;20036;-62
2023/08/13 11:36:45;;;;;;;4.95;4.45;;;27.90;99.90;;;;;;5069371;28;20086;-62
2023/08/13 11:39:18;;;;;;;8.07;5.00;;;28.00;99.90;;;;;;5054452;28;20408;-62
2023/08/13 11:41:51;;;;;;;5.07;4.55;;;28.20;99.90;;;;;;5058742;28;20057;-63
2023/08/13 11:44:23;;;;;;;;;;;28.50;99.90;;;;;;5068194;28;20052;-62
2023/08/13 11:46:57;;;;;;;6.28;4.47;;;28.60;99.90;;;;;;5071946;28;19921;-63
2023/08/13 11:49:28;;;;;;;8.13;5.25;;;28.50;99.90;;;;;;5054695;28;20040;-63
2023/08/13 11:52:06;;;;;;;8.18;4.20;;;28.40;99.90;;;;;;5070980;28;20059;-63
2023/08/13 11:54:39;;;;;;;6.78;4.50;;;28.30;99.90;;;;;;5070947;28;20045;-65
2023/08/13 11:57:11;;;;;;;6.00;4.78;;;28.40;99.90;;;;;;5070706;28;20128;-63
2023/08/13 11:59:46;;;;;;;5.07;4.57;;;28.50;99.90;;;;;;5068631;28;20044;-62
2023/08/13 12:02:19;;;;;;;5.28;4.40;;;28.60;99.90;;;;;;5049602;28;20083;-62
2023/08/13 12:04:48;;;;;;;5.43;4.93;;;28.70;99.90;;;;;;5069434;28;20127;-65
2023/08/13 12:07:19;;;;;;;5.90;4.60;;;28.70;99.90;;;;;;5071033;28;20032;-62
2023/08/13 12:09:51;;;;;;;4.80;4.30;;;28.70;99.90;;;;;;5073229;28;20048;-62
2023/08/13 12:12:23;;;;;;;7.32;4.43;;;28.90;99.90;;;;;;5070987;28;20039;-63
2023/08/13 12:14:56;;;;;;;10.07;5.17;;;29.00;99.90;;;;;;5072849;28;20062;-63
2023/08/13 12:17:28;;;;;;;4.20;3.85;;;29.10;99.90;;;;;;5070315;28;20286;-63
2023/08/13 12:19:59;;;;;;;8.02;4.65;;;29.10;99.90;;;;;;5073870;28;20052;-63
2023/08/13 12:22:31;;;;;;;7.07;4.35;;;29.30;99.90;;;;;;5053956;28;20127;-62
2023/08/13 12:25:03;;;;;;;6.68;4.30;;;29.40;99.90;;;;;;5071500;28;20044;-62
2023/08/13 12:27:30;;;;;;;5.20;4.40;;;29.60;99.90;;;;;;5068133;28;20707;-62
2023/08/13 12:30:03;;;;;;;5.57;4.55;;;29.70;99.90;;;;;;5054302;28;20048;-62
2023/08/13 12:32:36;;;;;;;5.65;4.05;;;29.90;99.90;;;;;;5071945;28;20091;-62
2023/08/13 12:35:08;;;;;;;;;;;29.90;99.90;;;;;;5074561;28;20064;-62
2023/08/13 12:37:40;;;;;;;6.43;4.28;;;29.80;99.90;;;;;;5072431;28;19925;-62
2023/08/13 12:40:12;;;;;;;5.22;4.38;;;29.80;99.90;;;;;;5075886;28;20040;-63
2023/08/13 12:42:44;;;;;;;6.18;4.07;;;30.00;99.90;;;;;;5057418;28;20401;-62
2023/08/13 12:45:16;;;;;;;5.07;4.57;;;30.30;99.90;;;;;;5072638;28;20055;-63
2023/08/13 12:47:48;;;;;;;8.03;4.20;;;30.40;99.90;;;;;;5067823;28;20037;-62
2023/08/13 12:50:20;;;;;;;4.57;4.00;;;30.40;99.90;;;;;;5070026;28;20047;-63
2023/08/13 12:52:52;;;;;;;3.67;3.38;;;30.60;99.90;;;;;;5071958;28;20045;-63
2023/08/13 12:55:24;;;;;;;5.43;3.70;;;30.60;99.90;;;;;;5060910;28;20036;-62
2023/08/13 12:57:56;;;;;;;5.07;4.13;;;30.50;99.90;;;;;;5054049;28;20298;-62
2023/08/13 13:00:23;;;;;;;7.65;4.10;;;30.50;99.90;;;;;;5054284;28;20500;-62
2023/08/13 13:02:55;;;;;;;8.50;4.05;;;30.30;99.90;;;;;;5073255;28;20048;-62
2023/08/13 13:05:26;;;;;;;7.65;4.35;;;30.20;99.90;;;;;;5055856;28;20068;-62
2023/08/13 13:07:58;;;;;;;4.13;3.63;;;30.20;99.90;;;;;;5074144;28;20058;-62
2023/08/13 13:10:30;;;;;;;4.97;4.47;;;29.90;99.90;;;;;;5051807;28;20087;-62
2023/08/13 13:13:02;;;;;;;5.25;3.92;;;29.80;99.90;;;;;;5068834;28;20086;-62